Time;durP1;ratioP1;P1;durP2;ratioP2;P2;SDS_P1;SDS_P2;PMS_P1;PMS_P2;Temp;Humidity;BMP_temperature;BMP_pressure;BME280_temperature;BME280_humidity;BME280_pressure;Samples;Min_cycle;Max_cycle;Signal;HPM_P1;HPM_P2
2022/05/07 00:00:25;;;;;;;4.50;1.88;;;;;;;23.94;34.21;102390.25;5044558;28;20036;-70
2022/05/07 00:02:50;;;;;;;6.38;2.22;;;;;;;24.21;33.89;102389.06;5027975;28;20085;-70
2022/05/07 00:05:16;;;;;;;7.65;4.47;;;;;;;23.75;33.09;102384.78;5029078;28;20442;-70
2022/05/07 00:07:41;;;;;;;3.45;2.03;;;;;;;24.20;33.63;102376.63;5027667;28;20412;-70
2022/05/07 00:10:07;;;;;;;7.18;1.85;;;;;;;24.15;33.47;102388.47;5028694;28;20041;-70
2022/05/07 00:12:32;;;;;;;3.17;1.88;;;;;;;23.65;33.96;102369.13;5028559;28;20052;-70
2022/05/07 00:14:58;;;;;;;3.92;2.15;;;;;;;23.02;35.28;102375.13;5027649;28;20040;-70
2022/05/07 00:20:09;;;;;;;5.85;1.90;;;;;;;24.08;34.08;102376.31;5030042;28;20040;-70
2022/05/07 00:22:34;;;;;;;3.00;1.77;;;;;;;24.10;34.14;102380.66;5029945;28;20056;-70
2022/05/07 00:24:59;;;;;;;3.67;1.88;;;;;;;24.03;33.66;102374.69;5033071;28;20473;-70
2022/05/07 00:27:25;;;;;;;4.30;1.75;;;;;;;24.09;32.46;102373.56;5032185;28;20031;-70
2022/05/07 00:29:50;;;;;;;5.45;2.72;;;;;;;24.04;32.93;102364.88;5030684;28;20047;-70
2022/05/07 00:32:15;;;;;;;3.88;1.77;;;;;;;24.45;33.04;102358.66;5032061;28;20032;-70
2022/05/07 00:34:41;;;;;;;2.38;1.65;;;;;;;24.56;32.68;102362.59;5047766;28;20124;-70
2022/05/07 00:37:06;;;;;;;4.85;1.88;;;;;;;24.17;33.28;102355.41;5032621;28;20067;-70
2022/05/07 00:39:32;;;;;;;10.38;1.52;;;;;;;24.27;33.83;102353.19;5031570;28;20029;-70
2022/05/07 00:42:02;;;;;;;3.72;1.73;;;;;;;24.37;33.27;102345.63;5031358;28;20127;-70
2022/05/07 00:44:28;;;;;;;4.85;2.45;;;;;;;24.11;33.13;102355.69;5032515;28;20029;-70
2022/05/07 00:46:53;;;;;;;5.50;1.80;;;;;;;24.27;33.29;102347.00;5014511;28;20041;-70
2022/05/07 00:49:19;;;;;;;5.32;2.08;;;;;;;24.26;33.73;102347.94;5032335;28;20025;-70
2022/05/07 00:51:46;;;;;;;4.10;1.85;;;;;;;24.28;33.04;102340.72;5031108;28;20063;-70
2022/05/07 00:54:11;;;;;;;4.68;2.00;;;;;;;24.37;33.04;102334.94;5031618;28;20037;-70
2022/05/07 00:56:37;;;;;;;6.55;2.20;;;;;;;24.21;33.29;102340.13;5030599;28;20037;-70
2022/05/07 00:59:04;;;;;;;5.55;2.35;;;;;;;23.99;33.68;102341.06;5031263;28;20047;-70
2022/05/07 01:01:30;;;;;;;5.70;2.17;;;;;;;24.22;33.29;102340.06;5032415;28;20474;-70
2022/05/07 01:03:55;;;;;;;5.32;2.42;;;;;;;24.45;33.05;102343.50;5014026;28;20040;-71
2022/05/07 01:06:22;;;;;;;5.28;2.15;;;;;;;23.81;33.56;102364.03;5032522;28;20033;-70
2022/05/07 01:08:48;;;;;;;5.53;2.42;;;;;;;24.22;33.70;102353.41;5047681;28;20033;-70
2022/05/07 01:11:16;;;;;;;5.25;2.40;;;;;;;24.38;33.50;102344.72;5030413;28;20485;-70
2022/05/07 01:13:43;;;;;;;7.32;2.75;;;;;;;24.47;33.23;102346.97;5030670;28;20504;-70
2022/05/07 01:16:08;;;;;;;6.38;2.45;;;;;;;24.04;33.48;102344.41;5031236;28;20474;-70
2022/05/07 01:18:34;;;;;;;9.00;3.15;;;;;;;24.32;33.17;102342.34;5029978;28;20035;-70
2022/05/07 01:21:07;;;;;;;4.43;2.38;;;;;;;24.02;34.02;102350.75;5031755;28;20100;-70
2022/05/07 01:23:32;;;;;;;4.00;2.00;;;;;;;24.19;33.96;102342.88;5030814;28;20025;-70
2022/05/07 01:25:59;;;;;;;6.93;3.10;;;;;;;23.91;34.53;102353.00;5031416;28;20293;-69
2022/05/07 01:28:24;;;;;;;6.05;2.47;;;;;;;24.24;33.85;102344.47;5031073;28;20400;-70
2022/05/07 01:30:50;;;;;;;8.15;2.63;;;;;;;24.30;33.92;102336.16;5031661;28;20029;-70
2022/05/07 01:33:15;;;;;;;5.18;2.45;;;;;;;24.40;33.49;102340.19;5030847;28;20025;-70
2022/05/07 01:35:41;;;;;;;5.72;2.85;;;;;;;24.04;34.22;102338.16;5032016;28;20587;-70
2022/05/07 01:38:06;;;;;;;8.60;2.72;;;;;;;24.12;34.49;102336.03;5031176;28;20026;-70
2022/05/07 01:40:31;;;;;;;4.65;2.67;;;;;;;23.86;34.23;102330.00;5029916;28;20433;-70
2022/05/07 01:42:57;;;;;;;9.80;2.88;;;;;;;23.47;35.26;102330.72;5031409;28;20045;-70
2022/05/07 01:45:22;;;;;;;5.82;2.55;;;;;;;22.92;35.88;102338.25;5031927;28;20470;-70
2022/05/07 01:50:31;;;;;;;3.78;2.85;;;;;;;23.60;35.09;102339.09;5031868;28;20099;-70
2022/05/07 01:52:57;;;;;;;9.25;3.17;;;;;;;23.82;34.67;102336.41;5029470;28;20025;-70
2022/05/07 01:55:22;;;;;;;8.90;3.50;;;;;;;23.80;34.75;102335.59;5030642;28;20036;-70
2022/05/07 01:57:47;;;;;;;8.77;3.35;;;;;;;23.91;34.70;102335.19;5029844;28;20036;-70
2022/05/07 02:00:13;;;;;;;8.52;3.53;;;;;;;23.80;34.79;102335.59;5029398;28;20025;-70
2022/05/07 02:02:38;;;;;;;12.95;3.72;;;;;;;23.11;36.48;102325.91;5031078;28;20434;-69
2022/05/07 02:05:04;;;;;;;7.25;3.42;;;;;;;23.93;35.15;102329.75;5030454;28;20033;-70
2022/05/07 02:07:29;;;;;;;7.72;4.07;;;;;;;23.96;35.14;102326.94;5029155;28;20029;-69
2022/05/07 02:09:55;;;;;;;7.78;4.43;;;;;;;23.66;35.45;102327.31;5030105;28;20029;-70
2022/05/07 02:12:20;;;;;;;8.52;4.15;;;;;;;23.87;35.29;102326.38;5031376;28;20021;-70
2022/05/07 02:14:45;;;;;;;12.38;4.90;;;;;;;23.89;35.62;102329.00;5030182;28;20091;-71
2022/05/07 02:17:11;;;;;;;14.25;4.63;;;;;;;24.07;35.30;102326.50;5030095;28;20029;-70
2022/05/07 02:19:36;;;;;;;12.02;4.13;;;;;;;24.01;35.57;102322.28;5029653;28;20393;-70
2022/05/07 02:22:02;;;;;;;7.95;4.95;;;;;;;23.78;36.03;102321.47;5029051;28;20112;-70
2022/05/07 02:24:27;;;;;;;9.43;5.57;;;;;;;23.72;36.41;102322.56;5013506;28;20477;-70
2022/05/07 02:26:52;;;;;;;10.75;4.78;;;;;;;23.75;36.14;102320.72;5029223;28;20033;-70
2022/05/07 02:29:18;;;;;;;11.68;4.47;;;;;;;23.81;36.18;102318.66;5029251;28;20028;-70
2022/05/07 02:32:03;;;;;;;10.77;5.10;;;;;;;23.50;36.59;102317.25;5028875;28;20517;-70
2022/05/07 02:34:35;;;;;;;14.88;5.00;;;;;;;23.74;36.04;102314.50;5029870;28;20029;-70
2022/05/07 02:37:01;;;;;;;12.00;4.53;;;;;;;23.80;36.11;102319.56;5045415;28;20520;-70
2022/05/07 02:39:27;;;;;;;11.68;4.70;;;;;;;23.38;36.64;102312.41;5029569;28;20029;-70
2022/05/07 02:44:37;;;;;;;12.95;4.85;;;;;;;23.55;36.21;102323.28;5030708;28;20107;-70
2022/05/07 02:47:04;;;;;;;11.60;4.57;;;;;;;23.55;36.34;102325.94;5030636;28;20033;-70
2022/05/07 02:49:30;;;;;;;22.65;5.40;;;;;;;23.58;36.54;102330.28;5028371;28;20029;-70
2022/05/07 02:51:55;;;;;;;14.43;5.38;;;;;;;23.48;36.86;102324.47;5030455;28;20032;-70
2022/05/07 02:54:20;;;;;;;10.63;5.32;;;;;;;23.74;36.53;102330.53;5029549;28;20032;-70
2022/05/07 02:56:46;;;;;;;16.80;5.22;;;;;;;23.65;36.90;102330.91;5028046;28;20087;-70
2022/05/07 02:59:11;;;;;;;13.20;5.03;;;;;;;23.57;36.93;102333.03;5029316;28;20481;-70
2022/05/07 03:01:36;;;;;;;11.07;5.50;;;;;;;23.51;37.05;102329.66;5029135;28;20025;-70
2022/05/07 03:04:02;;;;;;;17.33;6.20;;;;;;;23.63;36.78;102335.44;5029727;28;20030;-70
2022/05/07 03:06:28;;;;;;;12.60;6.32;;;;;;;23.62;36.82;102341.72;5029565;28;20025;-70
2022/05/07 03:08:53;;;;;;;16.70;5.53;;;;;;;23.93;36.12;102343.97;5028993;28;20495;-70
2022/05/07 03:11:18;;;;;;;17.42;7.03;;;;;;;23.81;36.54;102348.03;5028583;28;20021;-70
2022/05/07 03:13:44;;;;;;;16.40;5.97;;;;;;;23.50;37.04;102338.59;5030043;28;20155;-70
2022/05/07 03:16:09;;;;;;;14.55;5.80;;;;;;;23.53;37.01;102337.59;5030652;28;20534;-69
2022/05/07 03:18:35;;;;;;;11.82;5.93;;;;;;;23.44;37.37;102338.88;5029683;28;20108;-70
2022/05/07 03:21:01;;;;;;;13.13;5.72;;;;;;;23.40;37.30;102333.69;5028708;28;20060;-70
2022/05/07 03:23:26;;;;;;;15.65;5.35;;;;;;;23.58;37.27;102334.78;5029278;28;20076;-70
2022/05/07 03:25:52;;;;;;;13.80;6.55;;;;;;;23.48;36.97;102335.13;5027973;28;20111;-70
2022/05/07 03:28:17;;;;;;;14.93;6.45;;;;;;;23.47;37.30;102337.88;5029311;28;20029;-70
2022/05/07 03:30:43;;;;;;;12.65;5.80;;;;;;;23.54;37.24;102334.00;5029966;28;20511;-69
2022/05/07 03:33:08;;;;;;;14.43;6.20;;;;;;;23.54;37.07;102334.88;5028364;28;20530;-70
2022/05/07 03:35:34;;;;;;;15.35;5.90;;;;;;;23.25;37.93;102340.53;5028767;28;20040;-70
2022/05/07 03:37:59;;;;;;;17.00;6.43;;;;;;;23.50;37.30;102349.28;5028888;28;20025;-70
2022/05/07 03:40:25;;;;;;;16.13;6.40;;;;;;;23.46;37.45;102339.66;5029706;28;20084;-70
2022/05/07 03:42:51;;;;;;;13.05;5.78;;;;;;;23.48;37.56;102345.81;5029483;28;20489;-70
2022/05/07 03:45:16;;;;;;;17.85;7.43;;;;;;;23.36;37.65;102346.31;5028350;28;20033;-70
2022/05/07 03:47:42;;;;;;;15.75;8.73;;;;;;;23.49;37.70;102344.88;5028268;28;20033;-70
2022/05/07 03:50:08;;;;;;;17.02;6.95;;;;;;;23.26;38.29;102342.25;5028895;28;20021;-69
2022/05/07 03:55:17;;;;;;;20.88;8.40;;;;;;;23.53;37.89;102338.50;5030753;28;20179;-70
2022/05/07 03:57:42;;;;;;;15.35;7.45;;;;;;;23.44;37.84;102344.19;5031358;28;20033;-71
2022/05/07 04:00:08;;;;;;;17.02;7.97;;;;;;;23.41;38.08;102344.34;5031881;28;20087;-70
2022/05/07 04:02:35;;;;;;;18.83;8.25;;;;;;;23.41;38.20;102349.66;5048699;28;20029;-70
2022/05/07 04:05:01;;;;;;;17.65;7.95;;;;;;;23.46;38.40;102342.31;5032438;28;20026;-70
2022/05/07 04:07:27;;;;;;;21.67;7.45;;;;;;;23.38;38.02;102339.09;5031776;28;20035;-70
2022/05/07 04:09:54;;;;;;;18.77;7.10;;;;;;;23.49;37.82;102342.22;5031539;28;20473;-70
2022/05/07 04:12:21;;;;;;;22.48;8.77;;;;;;;23.40;38.28;102347.94;5049025;28;20461;-70
2022/05/07 04:14:46;;;;;;;18.23;8.35;;;;;;;23.31;38.58;102346.47;5032336;28;20025;-70
2022/05/07 04:17:11;;;;;;;22.73;9.07;;;;;;;22.53;40.01;102356.53;5033574;28;20037;-70
2022/05/07 04:19:37;;;;;;;24.63;8.95;;;;;;;21.66;41.93;102357.72;5031937;28;20029;-70
2022/05/07 04:22:02;;;;;;;23.30;9.15;;;;;;;21.71;42.15;102357.56;5031014;28;20562;-70
2022/05/07 04:24:28;;;;;;;23.02;9.23;;;;;;;21.77;41.98;102366.19;5032190;28;20029;-70
2022/05/07 04:26:54;;;;;;;25.77;10.43;;;;;;;22.37;41.20;102360.66;5032924;28;20113;-70
2022/05/07 04:29:20;;;;;;;27.83;9.60;;;;;;;22.25;41.33;102361.06;5032843;28;20432;-70
2022/05/07 04:31:46;;;;;;;26.65;10.68;;;;;;;21.68;42.68;102366.53;5032530;28;20022;-70
2022/05/07 04:34:11;;;;;;;30.45;11.65;;;;;;;21.05;44.57;102371.09;5032129;28;20396;-70
2022/05/07 04:36:40;;;;;;;32.35;9.80;;;;;;;21.89;43.25;102374.72;5032182;28;20033;-70
2022/05/07 04:39:06;;;;;;;22.15;10.40;;;;;;;22.16;42.03;102363.13;5033109;28;20029;-70
2022/05/07 04:41:31;;;;;;;29.48;10.13;;;;;;;21.67;44.08;102375.44;5030904;28;20045;-70
2022/05/07 04:43:56;;;;;;;27.52;10.40;;;;;;;21.79;43.70;102377.69;5031592;28;20109;-70
2022/05/07 04:46:22;;;;;;;29.20;10.73;;;;;;;21.13;45.54;102383.25;5048522;28;20417;-70
2022/05/07 04:48:47;;;;;;;27.85;11.13;;;;;;;22.06;43.61;102380.31;5046906;28;20067;-70
2022/05/07 04:51:12;;;;;;;31.02;11.57;;;;;;;22.72;42.13;102366.50;5048451;28;20667;-70
2022/05/07 04:53:38;;;;;;;32.80;11.73;;;;;;;22.70;42.72;102371.88;5047801;28;20029;-70
2022/05/07 04:56:04;;;;;;;23.85;10.35;;;;;;;23.07;41.49;102372.31;5030921;28;20029;-70
2022/05/07 04:58:32;;;;;;;25.58;10.50;;;;;;;23.11;41.27;102373.03;5031244;28;20492;-70
2022/05/07 05:00:57;;;;;;;29.33;11.35;;;;;;;23.29;41.17;102376.84;5032655;28;20029;-70
2022/05/07 05:03:23;;;;;;;31.77;10.98;;;;;;;22.60;42.53;102372.28;5014227;28;20163;-70
2022/05/07 05:05:48;;;;;;;28.52;10.57;;;;;;;22.70;42.62;102371.88;5032133;28;20523;-70
2022/05/07 05:08:13;;;;;;;25.98;10.90;;;;;;;22.91;42.18;102380.00;5032317;28;20036;-70
2022/05/07 05:10:39;;;;;;;29.85;10.93;;;;;;;23.00;41.90;102376.13;5030288;28;20025;-70
2022/05/07 05:13:05;;;;;;;25.65;10.57;;;;;;;22.90;42.22;102385.41;5047945;28;20029;-70
2022/05/07 05:15:31;;;;;;;26.70;10.23;;;;;;;23.02;41.74;102384.94;5031964;28;20469;-70
2022/05/07 05:17:56;;;;;;;31.52;10.45;;;;;;;21.63;44.54;102397.72;5031641;28;20030;-70
2022/05/07 05:20:22;;;;;;;28.88;11.45;;;;;;;21.99;44.14;102400.97;5031074;28;20021;-70
2022/05/07 05:22:48;;;;;;;25.58;11.20;;;;;;;23.15;41.91;102391.56;5031678;28;20021;-70
2022/05/07 05:25:15;;;;;;;33.78;11.95;;;;;;;23.60;40.59;102396.94;5030496;28;20132;-70
2022/05/07 05:27:40;;;;;;;33.35;12.15;;;;;;;23.35;40.79;102398.78;5031689;28;20025;-69
2022/05/07 05:30:06;;;;;;;27.65;11.43;;;;;;;23.37;40.72;102404.09;5031014;28;20033;-70
2022/05/07 05:32:32;;;;;;;24.13;10.77;;;;;;;23.66;40.62;102402.03;5046727;28;20056;-70
2022/05/07 05:34:57;;;;;;;30.40;11.00;;;;;;;23.43;40.60;102401.16;5030647;28;20033;-70
2022/05/07 05:37:22;;;;;;;22.90;10.18;;;;;;;23.06;42.07;102412.34;5031022;28;20108;-70
2022/05/07 05:39:48;;;;;;;28.92;11.90;;;;;;;23.49;41.08;102410.72;5046154;28;20025;-70
2022/05/07 05:42:14;;;;;;;30.92;11.57;;;;;;;24.13;39.90;102412.56;5031877;28;20098;-70
2022/05/07 05:44:40;;;;;;;26.70;11.02;;;;;;;24.28;39.33;102410.19;5030974;28;20041;-69
2022/05/07 05:47:06;;;;;;;28.08;12.32;;;;;;;23.58;40.54;102406.81;5030734;28;20044;-70
2022/05/07 05:49:33;;;;;;;31.17;11.70;;;;;;;24.38;39.06;102407.03;5046940;28;20060;-70
2022/05/07 05:52:02;;;;;;;24.95;10.95;;;;;;;23.74;40.68;102415.94;5045913;28;20040;-70
2022/05/07 05:54:29;;;;;;;27.27;11.57;;;;;;;24.08;39.73;102411.88;5031738;28;20029;-70
2022/05/07 05:56:55;;;;;;;29.98;13.15;;;;;;;23.81;40.60;102409.41;5030205;28;20037;-70
2022/05/07 05:59:20;;;;;;;34.50;10.23;;;;;;;23.72;40.61;102412.47;5029446;28;20025;-70
2022/05/07 06:01:47;;;;;;;28.30;11.38;;;;;;;24.07;40.41;102409.28;5029593;28;20033;-70
2022/05/07 06:04:12;;;;;;;25.40;10.65;;;;;;;24.82;38.70;102418.53;5030874;28;20036;-70
2022/05/07 06:06:41;;;;;;;31.08;10.85;;;;;;;24.47;39.22;102411.13;5029230;28;20033;-70
2022/05/07 06:09:07;;;;;;;28.67;11.50;;;;;;;24.95;38.19;102406.34;5031821;28;20113;-70
2022/05/07 06:11:32;;;;;;;33.95;13.07;;;;;;;24.18;39.36;102418.59;5029651;28;20441;-70
2022/05/07 06:13:58;;;;;;;29.05;11.38;;;;;;;23.97;39.86;102411.47;5030276;28;20433;-70
2022/05/07 06:16:24;;;;;;;31.77;12.32;;;;;;;23.62;41.22;102413.78;5029943;28;20035;-70
2022/05/07 06:18:50;;;;;;;28.25;12.05;;;;;;;23.93;40.41;102410.72;5030131;28;20029;-70
2022/05/07 06:21:15;;;;;;;30.15;11.20;;;;;;;24.58;38.75;102409.75;5030245;28;20508;-70
2022/05/07 06:23:41;;;;;;;32.22;11.90;;;;;;;24.16;39.33;102411.56;5030462;28;20021;-70
2022/05/07 06:28:52;;;;;;;35.17;12.50;;;;;;;25.43;37.37;102412.16;5030133;28;20409;-70
2022/05/07 06:31:18;;;;;;;27.90;12.90;;;;;;;25.13;38.23;102409.94;5031361;28;20362;-71
2022/05/07 06:33:46;;;;;;;29.85;13.45;;;;;;;25.69;37.11;102415.34;5045879;28;20036;-71
2022/05/07 06:36:12;;;;;;;27.38;10.85;;;;;;;25.78;37.23;102424.75;5029115;28;20033;-70
2022/05/07 06:38:38;;;;;;;27.35;11.20;;;;;;;25.25;37.94;102413.84;5029404;28;20032;-70
2022/05/07 06:41:05;;;;;;;25.55;11.10;;;;;;;25.88;36.97;102424.22;5045473;28;20057;-70
2022/05/07 06:43:33;;;;;;;31.98;11.60;;;;;;;26.24;36.04;102426.00;5030791;28;20053;-71
2022/05/07 06:45:58;;;;;;;24.35;11.82;;;;;;;25.99;36.68;102430.84;5029169;28;20436;-70
2022/05/07 06:48:25;;;;;;;24.45;11.00;;;;;;;27.61;34.12;102418.72;5030107;28;20025;-71
2022/05/07 06:50:51;;;;;;;20.52;10.45;;;;;;;27.97;33.58;102430.94;5028988;28;20029;-69
2022/05/07 06:53:16;;;;;;;22.92;10.10;;;;;;;29.50;31.23;102425.13;5029678;28;20390;-70
2022/05/07 06:55:59;;;;;;;24.48;10.43;;;;;;;29.58;30.15;102435.38;5027930;28;20017;-70
2022/05/07 06:58:32;;;;;;;21.65;10.32;;;;;;;29.84;30.72;102422.88;5046162;28;20033;-70
2022/05/07 07:00:59;;;;;;;22.75;9.63;;;;;;;29.92;29.95;102430.47;5045785;28;20029;-71
2022/05/07 07:03:25;;;;;;;23.38;10.82;;;;;;;30.71;29.12;102422.41;5028783;28;20029;-70
2022/05/07 07:05:53;;;;;;;22.75;9.85;;;;;;;31.65;27.92;102428.25;5030134;28;20021;-70
2022/05/07 07:08:19;;;;;;;19.95;9.15;;;;;;;32.17;27.56;102429.69;5029432;28;20021;-70
2022/05/07 07:10:45;;;;;;;15.98;8.63;;;;;;;31.97;26.88;102421.25;5029283;28;20052;-70
2022/05/07 07:13:11;;;;;;;16.83;7.25;;;;;;;32.07;25.65;102428.66;5029205;28;20045;-70
2022/05/07 07:15:39;;;;;;;13.35;7.05;;;;;;;33.46;25.21;102420.38;5030432;28;20052;-70
2022/05/07 07:18:11;;;;;;;15.38;6.82;;;;;;;33.76;25.42;102429.63;5028542;28;20033;-70
2022/05/07 07:20:38;;;;;;;11.15;5.93;;;;;;;33.97;25.22;102430.50;5030147;28;20095;-70
2022/05/07 07:23:04;;;;;;;11.82;5.43;;;;;;;34.16;24.21;102431.66;5029073;28;20080;-70
2022/05/07 07:25:30;;;;;;;12.68;5.55;;;;;;;35.86;23.35;102427.44;5029359;28;20079;-70
2022/05/07 07:27:55;;;;;;;12.18;6.05;;;;;;;34.46;23.37;102443.59;5028884;28;20017;-70
2022/05/07 07:30:21;;;;;;;12.25;5.75;;;;;;;35.66;23.38;102427.38;5028433;28;20040;-70
2022/05/07 07:32:46;;;;;;;12.93;5.25;;;;;;;35.13;21.82;102427.72;5031714;28;20460;-70
2022/05/07 07:35:11;;;;;;;12.63;5.35;;;;;;;34.88;22.50;102427.22;5033264;28;20437;-72
2022/05/07 07:37:38;;;;;;;7.00;5.45;;;;;;;35.59;22.02;102426.25;5032173;28;20528;-70
2022/05/07 07:40:04;;;;;;;12.93;5.72;;;;;;;35.97;21.91;102435.44;5034209;28;20061;-70
2022/05/07 07:42:30;;;;;;;9.80;5.40;;;;;;;35.15;22.24;102428.44;5032472;28;20052;-71
2022/05/07 07:48:05;;;;;;;8.75;5.43;;;;;;;34.77;22.96;102435.44;5025039;28;20057;-71
2022/05/07 07:50:35;;;;;;;10.98;5.63;;;;;;;34.99;22.75;102435.28;5032554;28;20021;-71
2022/05/07 07:53:03;;;;;;;11.98;5.32;;;;;;;34.02;24.88;102435.56;5033118;28;20522;-71
2022/05/07 07:55:30;;;;;;;7.38;4.82;;;;;;;34.06;23.57;102437.03;5032705;28;20160;-71
2022/05/07 07:58:00;;;;;;;11.40;5.05;;;;;;;34.85;23.45;102437.50;5032473;28;20029;-71
2022/05/07 08:00:27;;;;;;;9.90;4.70;;;;;;;33.68;24.18;102442.97;5032117;28;20485;-71
2022/05/07 08:02:55;;;;;;;9.98;4.78;;;;;;;34.55;22.31;102442.75;5031969;28;20025;-71
2022/05/07 08:05:22;;;;;;;11.18;5.07;;;;;;;33.08;24.26;102440.59;5031872;28;20057;-70
2022/05/07 08:13:16;;;;;;;6.57;4.22;;;;;;;33.91;25.05;102443.72;5032868;28;20055;-71
2022/05/07 08:15:42;;;;;;;8.57;3.90;;;;;;;34.46;24.03;102440.88;5032999;28;20485;-71
2022/05/07 08:18:08;;;;;;;10.30;5.25;;;;;;;32.83;24.62;102447.16;5033818;28;20478;-70
2022/05/07 08:20:33;;;;;;;8.00;4.40;;;;;;;30.89;27.33;102448.06;5031408;28;20528;-70
2022/05/07 08:22:59;;;;;;;7.40;4.18;;;;;;;31.17;26.50;102451.47;5032185;28;20430;-70
2022/05/07 08:25:24;;;;;;;10.20;4.72;;;;;;;33.92;23.29;102446.34;5032440;28;20108;-70
2022/05/07 08:27:50;;;;;;;9.52;5.20;;;;;;;33.54;24.15;102455.81;5030778;28;20366;-70
2022/05/07 08:30:15;;;;;;;8.75;4.55;;;;;;;33.45;23.64;102453.84;5032251;28;20112;-72
2022/05/07 08:32:40;;;;;;;8.23;5.18;;;;;;;34.34;22.47;102452.81;5031508;28;20018;-70
2022/05/07 08:35:06;;;;;;;8.25;5.25;;;;;;;34.71;22.59;102457.72;5031389;28;20056;-70
2022/05/07 08:37:32;;;;;;;13.20;4.78;;;;;;;34.21;22.67;102456.53;5048267;28;20040;-70
2022/05/07 08:40:01;;;;;;;9.05;5.45;;;;;;;34.45;23.08;102452.72;5048239;28;20699;-71
2022/05/07 08:42:30;;;;;;;8.90;5.28;;;;;;;36.13;21.10;102445.69;5032046;28;20107;-70
2022/05/07 08:44:57;;;;;;;12.25;5.30;;;;;;;34.37;22.08;102455.25;5032907;28;20044;-71
2022/05/07 08:47:23;;;;;;;10.93;5.40;;;;;;;34.99;21.99;102457.00;5033305;28;20068;-71
2022/05/07 08:49:52;;;;;;;7.30;4.80;;;;;;;36.25;20.39;102454.56;5031987;28;20037;-71
2022/05/07 08:52:18;;;;;;;11.02;4.80;;;;;;;35.93;20.66;102466.63;5032050;28;20056;-71
2022/05/07 08:54:45;;;;;;;7.82;5.18;;;;;;;34.43;21.93;102468.25;5046713;28;20501;-70
2022/05/07 08:57:11;;;;;;;9.05;4.47;;;;;;;33.20;23.32;102461.25;5033207;28;20029;-71
2022/05/07 08:59:37;;;;;;;11.20;5.20;;;;;;;33.41;24.42;102461.38;5031502;28;20036;-70
2022/05/07 09:02:03;;;;;;;7.38;4.63;;;;;;;34.07;22.58;102463.13;5031962;28;20030;-71
2022/05/07 09:04:28;;;;;;;7.82;3.70;;;;;;;33.44;22.80;102463.84;5031585;28;20108;-71
2022/05/07 09:06:57;;;;;;;9.98;5.43;;;;;;;33.48;25.12;102467.16;5032594;28;20163;-71
2022/05/07 09:09:23;;;;;;;8.13;4.15;;;;;;;34.64;23.98;102474.53;5031131;28;20022;-71
2022/05/07 09:11:48;;;;;;;10.98;5.70;;;;;;;37.79;19.16;102465.06;5032209;28;20108;-71
2022/05/07 09:14:14;;;;;;;8.85;4.97;;;;;;;36.38;20.32;102464.31;5031735;28;20021;-71
2022/05/07 09:16:50;;;;;;;9.00;5.22;;;;;;;37.00;20.48;102472.84;5031562;28;20473;-71
2022/05/07 09:19:25;;;;;;;8.02;5.15;;;;;;;37.57;19.63;102466.38;5031377;28;20440;-71
2022/05/07 09:21:54;;;;;;;6.10;3.97;;;;;;;34.39;22.34;102474.94;5030749;28;20108;-70
2022/05/07 09:24:21;;;;;;;8.00;5.32;;;;;;;33.17;25.43;102466.94;5030524;28;20021;-69
2022/05/07 09:26:47;;;;;;;7.53;4.00;;;;;;;30.70;26.24;102474.63;5030609;28;20540;-69
2022/05/07 09:29:14;;;;;;;10.38;5.35;;;;;;;33.33;23.69;102476.56;5032495;28;20428;-69
2022/05/07 09:31:42;;;;;;;12.00;6.95;;;;;;;33.29;24.26;102465.09;5029516;28;20503;-69
2022/05/07 09:37:01;;;;;;;12.27;6.43;;;;;;;36.38;20.38;102467.03;5031804;28;20059;-69
2022/05/07 09:39:33;;;;;;;13.45;7.15;;;;;;;35.88;21.58;102466.22;5030961;28;20106;-69
2022/05/07 09:41:59;;;;;;;12.90;6.38;;;;;;;33.96;24.01;102480.34;5030510;28;20095;-69
2022/05/07 09:44:28;;;;;;;9.57;5.25;;;;;;;32.81;24.06;102477.06;5030220;28;20436;-69
2022/05/07 09:46:53;;;;;;;9.65;5.30;;;;;;;33.52;23.53;102471.31;5030214;28;20025;-69
2022/05/07 09:49:19;;;;;;;14.20;7.22;;;;;;;33.55;23.25;102470.22;5030772;28;20432;-69
2022/05/07 09:51:46;;;;;;;11.18;6.07;;;;;;;32.35;24.66;102475.22;5030930;28;20029;-69
2022/05/07 09:59:43;;;;;;;6.38;3.88;;;;;;;35.87;20.74;102460.91;5030667;28;20037;-69
2022/05/07 10:02:25;;;;;;;8.25;4.25;;;;;;;34.58;21.30;102475.09;5030497;28;20079;-69
2022/05/07 10:05:11;;;;;;;7.20;4.10;;;;;;;34.77;21.87;102473.44;5030073;28;20076;-69
2022/05/07 10:07:50;;;;;;;7.38;3.63;;;;;;;34.53;21.79;102488.19;5030340;28;20039;-69
2022/05/07 10:10:25;;;;;;;10.57;5.40;;;;;;;33.83;22.79;102474.22;5030423;28;20026;-69
2022/05/07 10:12:55;;;;;;;7.18;4.13;;;;;;;33.01;23.00;102488.97;5029121;28;20048;-69
2022/05/07 10:15:23;;;;;;;9.57;4.95;;;;;;;34.60;22.23;102483.94;5046929;28;20022;-69
2022/05/07 10:18:04;;;;;;;7.93;4.18;;;;;;;35.27;21.44;102475.34;5030827;28;20500;-69
2022/05/07 10:20:45;;;;;;;9.48;4.75;;;;;;;36.02;20.28;102483.09;5029396;28;20022;-70
2022/05/07 10:23:12;;;;;;;6.75;3.95;;;;;;;36.33;19.30;102473.78;5031599;28;20033;-69
2022/05/07 10:25:45;;;;;;;5.82;4.03;;;;;;;36.10;20.20;102483.25;5030980;28;20053;-70
2022/05/07 10:28:13;;;;;;;7.95;4.82;;;;;;;36.57;19.33;102480.56;5030659;28;20074;-70
2022/05/07 10:30:54;;;;;;;8.45;4.72;;;;;;;35.86;20.22;102481.81;5029291;28;20036;-70
2022/05/07 10:33:21;;;;;;;7.22;4.90;;;;;;;37.01;18.99;102483.59;5029071;28;20424;-70
2022/05/07 10:35:48;;;;;;;9.88;5.22;;;;;;;36.31;19.64;102480.31;5046242;28;20025;-69
2022/05/07 10:38:32;;;;;;;10.68;5.65;;;;;;;35.75;20.82;102480.06;5030046;28;20477;-69
2022/05/07 10:40:59;;;;;;;8.27;5.28;;;;;;;36.62;19.28;102478.28;5028774;28;20052;-69
2022/05/07 10:43:28;;;;;;;6.50;5.47;;;;;;;35.48;21.59;102480.75;5029683;28;20108;-69
2022/05/07 10:45:55;;;;;;;7.40;4.57;;;;;;;33.52;22.52;102482.16;5029237;28;20090;-69
2022/05/07 10:48:21;;;;;;;11.93;6.97;;;;;;;33.64;22.71;102491.13;5030330;28;20045;-70
2022/05/07 10:50:51;;;;;;;10.50;5.80;;;;;;;33.86;23.47;102476.69;5030412;28;20063;-70
2022/05/07 10:53:16;;;;;;;11.27;6.38;;;;;;;31.57;25.39;102481.00;5029826;28;20455;-69
2022/05/07 10:55:41;;;;;;;11.23;6.40;;;;;;;31.67;24.89;102486.59;5044952;28;20025;-69
2022/05/07 10:58:07;;;;;;;10.15;5.15;;;;;;;31.82;24.50;102484.59;5030828;28;20029;-69
2022/05/07 11:00:34;;;;;;;10.98;6.20;;;;;;;32.58;24.75;102482.41;5029312;28;20112;-69
2022/05/07 11:02:59;;;;;;;11.68;5.80;;;;;;;33.17;23.75;102483.19;5028526;28;20018;-69
2022/05/07 11:05:32;;;;;;;12.27;5.60;;;;;;;33.41;23.96;102479.50;5029337;28;20032;-69
2022/05/07 11:07:59;;;;;;;7.80;4.65;;;;;;;32.09;24.60;102483.47;5029287;28;20839;-68
2022/05/07 11:10:25;;;;;;;7.85;5.22;;;;;;;33.01;23.57;102494.41;5030173;28;20129;-69
2022/05/07 11:12:50;;;;;;;11.10;4.28;;;;;;;30.88;26.24;102492.19;5028742;28;20521;-69
2022/05/07 11:15:24;;;;;;;7.25;3.88;;;;;;;32.26;24.30;102476.78;5028787;28;20029;-69
2022/05/07 11:17:50;;;;;;;10.50;5.68;;;;;;;30.92;26.77;102485.63;5012642;28;20497;-69
2022/05/07 11:20:16;;;;;;;11.55;6.38;;;;;;;31.49;25.92;102483.41;5029276;28;20056;-69
2022/05/07 11:22:41;;;;;;;14.90;5.80;;;;;;;30.38;26.61;102485.78;5028025;28;20037;-69
2022/05/07 11:25:08;;;;;;;16.42;6.60;;;;;;;31.16;26.33;102482.19;5029374;28;20516;-69
2022/05/07 11:27:34;;;;;;;10.60;5.80;;;;;;;30.91;26.66;102489.31;5028968;28;20025;-69
2022/05/07 11:30:00;;;;;;;12.52;5.18;;;;;;;29.75;27.12;102478.22;5028509;28;20390;-69
2022/05/07 11:32:39;;;;;;;12.32;6.32;;;;;;;33.11;24.32;102472.84;5029140;28;20018;-69
2022/05/07 11:35:05;;;;;;;8.35;4.82;;;;;;;32.97;24.18;102480.25;5029519;28;20375;-69
2022/05/07 11:37:41;;;;;;;11.82;5.97;;;;;;;31.85;25.28;102476.25;5029490;28;20029;-69
2022/05/07 11:40:12;;;;;;;12.02;6.70;;;;;;;32.30;24.88;102481.84;5029992;28;20021;-69
2022/05/07 11:42:45;;;;;;;11.95;6.38;;;;;;;32.81;24.39;102487.88;5029813;28;20046;-69
2022/05/07 11:45:26;;;;;;;;;;;;;;;34.92;21.97;102477.53;5030220;28;20393;-69
2022/05/07 11:48:16;;;;;;;9.43;4.22;;;;;;;32.86;24.22;102480.22;5045298;28;19917;-69